sensor_id;sensor_type;location;lat;lon;timestamp;noise_LAeq;noise_LA_min;noise_LA_max;noise_LA01;noise_LA95
47923;Laerm;33688;44.354;9.228;2024-03-08T00:01:31;35.72;35.01;39.66;;
47923;Laerm;33688;44.354;9.228;2024-03-08T00:03:57;35.71;34.98;38.62;;
47923;Laerm;33688;44.354;9.228;2024-03-08T00:06:23;35.72;34.95;37.49;;
47923;Laerm;33688;44.354;9.228;2024-03-08T00:08:50;35.71;34.92;36.57;;
47923;Laerm;33688;44.354;9.228;2024-03-08T00:11:17;35.72;34.98;36.77;;
47923;Laerm;33688;44.354;9.228;2024-03-08T00:13:43;35.71;35.08;38.76;;
47923;Laerm;33688;44.354;9.228;2024-03-08T00:16:12;35.72;35.07;36.78;;
47923;Laerm;33688;44.354;9.228;2024-03-08T00:18:39;35.71;34.93;36.45;;
47923;Laerm;33688;44.354;9.228;2024-03-08T00:21:05;35.71;34.98;36.60;;
47923;Laerm;33688;44.354;9.228;2024-03-08T00:23:30;35.70;35.06;36.52;;
47923;Laerm;33688;44.354;9.228;2024-03-08T00:25:57;35.71;35.07;36.69;;
47923;Laerm;33688;44.354;9.228;2024-03-08T00:28:24;35.72;35.03;38.81;;
47923;Laerm;33688;44.354;9.228;2024-03-08T00:30:50;35.72;35.07;36.71;;
47923;Laerm;33688;44.354;9.228;2024-03-08T00:33:17;35.72;35.07;38.83;;
47923;Laerm;33688;44.354;9.228;2024-03-08T00:35:43;35.70;34.98;36.52;;
47923;Laerm;33688;44.354;9.228;2024-03-08T00:38:09;35.71;34.90;36.52;;
47923;Laerm;33688;44.354;9.228;2024-03-08T00:40:34;35.71;35.09;36.61;;
47923;Laerm;33688;44.354;9.228;2024-03-08T00:43:00;35.70;34.96;36.55;;
47923;Laerm;33688;44.354;9.228;2024-03-08T00:45:29;35.71;35.04;36.52;;
47923;Laerm;33688;44.354;9.228;2024-03-08T00:47:55;35.72;34.96;43.16;;
47923;Laerm;33688;44.354;9.228;2024-03-08T00:50:21;35.70;34.96;36.56;;
47923;Laerm;33688;44.354;9.228;2024-03-08T00:52:46;35.69;34.88;36.70;;
47923;Laerm;33688;44.354;9.228;2024-03-08T00:55:12;35.69;35.00;36.64;;
47923;Laerm;33688;44.354;9.228;2024-03-08T00:57:38;35.70;34.93;36.71;;
47923;Laerm;33688;44.354;9.228;2024-03-08T01:00:06;35.70;35.03;36.64;;
47923;Laerm;33688;44.354;9.228;2024-03-08T01:02:36;35.71;35.01;36.57;;
47923;Laerm;33688;44.354;9.228;2024-03-08T01:05:02;35.76;35.02;46.30;;
47923;Laerm;33688;44.354;9.228;2024-03-08T01:07:27;35.72;35.07;39.01;;
47923;Laerm;33688;44.354;9.228;2024-03-08T01:09:53;35.71;35.04;36.61;;
47923;Laerm;33688;44.354;9.228;2024-03-08T01:12:19;35.71;34.81;36.61;;
47923;Laerm;33688;44.354;9.228;2024-03-08T01:14:45;35.70;34.82;36.51;;
47923;Laerm;33688;44.354;9.228;2024-03-08T01:17:11;35.70;34.93;36.58;;
47923;Laerm;33688;44.354;9.228;2024-03-08T01:19:38;35.71;34.97;36.81;;
47923;Laerm;33688;44.354;9.228;2024-03-08T01:22:04;35.70;35.00;36.70;;
47923;Laerm;33688;44.354;9.228;2024-03-08T01:24:31;35.71;34.99;36.67;;
47923;Laerm;33688;44.354;9.228;2024-03-08T01:26:57;35.73;35.02;36.55;;
47923;Laerm;33688;44.354;9.228;2024-03-08T01:29:23;35.72;35.02;38.08;;
47923;Laerm;33688;44.354;9.228;2024-03-08T01:31:48;35.72;34.93;36.59;;
47923;Laerm;33688;44.354;9.228;2024-03-08T01:34:14;35.72;34.92;36.58;;
47923;Laerm;33688;44.354;9.228;2024-03-08T01:36:40;35.72;35.00;36.61;;
47923;Laerm;33688;44.354;9.228;2024-03-08T01:39:06;35.72;34.97;36.64;;
47923;Laerm;33688;44.354;9.228;2024-03-08T01:41:34;35.70;34.91;36.49;;
47923;Laerm;33688;44.354;9.228;2024-03-08T01:44:02;35.71;34.97;36.67;;
47923;Laerm;33688;44.354;9.228;2024-03-08T01:46:29;35.71;35.02;36.54;;
47923;Laerm;33688;44.354;9.228;2024-03-08T01:48:56;35.71;34.99;37.22;;
47923;Laerm;33688;44.354;9.228;2024-03-08T01:51:22;35.71;34.98;36.66;;
47923;Laerm;33688;44.354;9.228;2024-03-08T01:53:48;35.72;35.02;37.58;;
47923;Laerm;33688;44.354;9.228;2024-03-08T01:56:14;35.73;35.03;44.07;;
47923;Laerm;33688;44.354;9.228;2024-03-08T01:58:42;35.70;34.99;36.61;;
47923;Laerm;33688;44.354;9.228;2024-03-08T02:01:12;35.64;34.99;36.30;;
47923;Laerm;33688;44.354;9.228;2024-03-08T02:03:41;35.69;34.97;36.64;;
47923;Laerm;33688;44.354;9.228;2024-03-08T02:06:11;35.69;34.94;36.72;;
47923;Laerm;33688;44.354;9.228;2024-03-08T02:08:42;35.69;34.53;36.57;;
47923;Laerm;33688;44.354;9.228;2024-03-08T02:11:09;35.71;34.95;36.67;;
47923;Laerm;33688;44.354;9.228;2024-03-08T02:13:35;35.71;34.86;37.04;;
47923;Laerm;33688;44.354;9.228;2024-03-08T02:16:01;35.71;34.90;37.41;;
47923;Laerm;33688;44.354;9.228;2024-03-08T02:18:30;35.70;35.11;36.62;;
47923;Laerm;33688;44.354;9.228;2024-03-08T02:21:02;35.72;35.09;36.65;;
47923;Laerm;33688;44.354;9.228;2024-03-08T02:23:29;35.69;35.02;36.69;;
47923;Laerm;33688;44.354;9.228;2024-03-08T02:25:56;35.71;34.91;36.76;;
47923;Laerm;33688;44.354;9.228;2024-03-08T02:28:23;35.72;35.08;36.66;;
47923;Laerm;33688;44.354;9.228;2024-03-08T02:30:51;35.72;35.05;36.60;;
47923;Laerm;33688;44.354;9.228;2024-03-08T02:33:21;35.71;34.90;36.56;;
47923;Laerm;33688;44.354;9.228;2024-03-08T02:35:48;35.72;34.92;40.18;;
47923;Laerm;33688;44.354;9.228;2024-03-08T02:38:21;35.70;34.86;36.78;;
47923;Laerm;33688;44.354;9.228;2024-03-08T02:40:50;35.71;34.95;36.86;;
47923;Laerm;33688;44.354;9.228;2024-03-08T02:43:18;35.72;35.08;36.66;;
47923;Laerm;33688;44.354;9.228;2024-03-08T02:45:44;35.71;34.96;36.63;;
47923;Laerm;33688;44.354;9.228;2024-03-08T02:48:32;35.70;34.90;38.13;;
47923;Laerm;33688;44.354;9.228;2024-03-08T02:50:57;35.69;34.93;36.53;;
47923;Laerm;33688;44.354;9.228;2024-03-08T02:53:23;35.71;34.85;40.48;;
47923;Laerm;33688;44.354;9.228;2024-03-08T02:55:50;35.70;35.08;36.51;;
47923;Laerm;33688;44.354;9.228;2024-03-08T02:58:16;35.72;35.00;42.85;;
47923;Laerm;33688;44.354;9.228;2024-03-08T03:00:42;35.70;34.96;36.60;;
47923;Laerm;33688;44.354;9.228;2024-03-08T03:03:09;35.71;34.96;36.66;;
47923;Laerm;33688;44.354;9.228;2024-03-08T03:05:35;35.71;35.07;36.67;;
47923;Laerm;33688;44.354;9.228;2024-03-08T03:08:01;35.69;34.98;36.77;;
47923;Laerm;33688;44.354;9.228;2024-03-08T03:10:27;35.71;35.08;36.72;;
47923;Laerm;33688;44.354;9.228;2024-03-08T03:12:52;35.70;34.89;36.55;;
47923;Laerm;33688;44.354;9.228;2024-03-08T03:15:18;35.71;34.76;36.58;;
47923;Laerm;33688;44.354;9.228;2024-03-08T03:17:50;35.71;34.84;36.53;;
47923;Laerm;33688;44.354;9.228;2024-03-08T03:20:17;35.70;35.04;36.65;;
47923;Laerm;33688;44.354;9.228;2024-03-08T03:22:51;35.69;35.01;36.62;;
47923;Laerm;33688;44.354;9.228;2024-03-08T03:25:21;35.70;34.99;36.63;;
47923;Laerm;33688;44.354;9.228;2024-03-08T03:28:04;35.71;35.00;36.65;;
47923;Laerm;33688;44.354;9.228;2024-03-08T03:30:30;35.70;34.95;36.76;;
47923;Laerm;33688;44.354;9.228;2024-03-08T03:33:03;35.72;35.01;36.83;;
47923;Laerm;33688;44.354;9.228;2024-03-08T03:35:35;35.71;35.09;36.54;;
47923;Laerm;33688;44.354;9.228;2024-03-08T03:38:01;35.70;34.93;36.54;;
47923;Laerm;33688;44.354;9.228;2024-03-08T03:40:34;35.69;34.86;36.91;;
47923;Laerm;33688;44.354;9.228;2024-03-08T03:43:01;35.71;35.00;36.67;;
47923;Laerm;33688;44.354;9.228;2024-03-08T03:45:28;35.71;35.07;36.52;;
47923;Laerm;33688;44.354;9.228;2024-03-08T03:47:54;35.71;34.94;36.60;;
47923;Laerm;33688;44.354;9.228;2024-03-08T03:50:21;35.71;35.04;36.60;;
47923;Laerm;33688;44.354;9.228;2024-03-08T03:52:49;35.72;35.12;36.66;;
47923;Laerm;33688;44.354;9.228;2024-03-08T03:55:15;35.71;35.01;36.60;;
47923;Laerm;33688;44.354;9.228;2024-03-08T03:57:41;35.70;34.99;36.57;;
47923;Laerm;33688;44.354;9.228;2024-03-08T04:00:07;35.70;34.87;36.63;;
47923;Laerm;33688;44.354;9.228;2024-03-08T04:02:41;35.71;34.92;36.52;;
47923;Laerm;33688;44.354;9.228;2024-03-08T04:05:09;35.69;34.96;36.56;;
47923;Laerm;33688;44.354;9.228;2024-03-08T04:07:36;35.73;35.11;37.45;;
47923;Laerm;33688;44.354;9.228;2024-03-08T04:10:03;35.69;35.00;36.56;;
47923;Laerm;33688;44.354;9.228;2024-03-08T04:12:29;35.69;34.97;36.76;;
47923;Laerm;33688;44.354;9.228;2024-03-08T04:14:55;35.70;35.03;36.43;;
47923;Laerm;33688;44.354;9.228;2024-03-08T04:17:22;35.70;34.94;36.95;;
47923;Laerm;33688;44.354;9.228;2024-03-08T04:19:50;35.70;34.96;38.33;;
47923;Laerm;33688;44.354;9.228;2024-03-08T04:22:16;35.68;34.92;36.51;;
47923;Laerm;33688;44.354;9.228;2024-03-08T04:24:44;35.70;34.92;36.49;;
47923;Laerm;33688;44.354;9.228;2024-03-08T04:27:13;35.70;34.92;36.58;;
47923;Laerm;33688;44.354;9.228;2024-03-08T04:29:40;35.69;35.01;36.58;;
47923;Laerm;33688;44.354;9.228;2024-03-08T04:32:24;35.73;35.00;46.77;;
47923;Laerm;33688;44.354;9.228;2024-03-08T04:34:50;35.68;35.05;36.61;;
47923;Laerm;33688;44.354;9.228;2024-03-08T04:37:16;35.69;34.97;36.51;;
47923;Laerm;33688;44.354;9.228;2024-03-08T04:39:48;35.68;34.74;36.60;;
47923;Laerm;33688;44.354;9.228;2024-03-08T04:42:14;35.68;35.10;36.66;;
47923;Laerm;33688;44.354;9.228;2024-03-08T04:44:41;35.69;35.02;36.67;;
47923;Laerm;33688;44.354;9.228;2024-03-08T04:47:07;35.69;34.97;36.60;;
47923;Laerm;33688;44.354;9.228;2024-03-08T04:49:33;35.69;35.02;36.70;;
47923;Laerm;33688;44.354;9.228;2024-03-08T04:52:05;35.69;34.91;36.70;;
47923;Laerm;33688;44.354;9.228;2024-03-08T04:54:31;35.69;34.97;36.68;;
47923;Laerm;33688;44.354;9.228;2024-03-08T04:56:57;35.70;34.98;36.97;;
47923;Laerm;33688;44.354;9.228;2024-03-08T04:59:23;35.85;34.96;46.99;;
47923;Laerm;33688;44.354;9.228;2024-03-08T05:01:49;35.82;35.06;39.69;;
47923;Laerm;33688;44.354;9.228;2024-03-08T05:04:15;35.70;34.95;36.62;;
47923;Laerm;33688;44.354;9.228;2024-03-08T05:06:41;35.78;35.05;48.29;;
47923;Laerm;33688;44.354;9.228;2024-03-08T05:09:07;35.71;34.99;36.60;;
47923;Laerm;33688;44.354;9.228;2024-03-08T05:11:45;35.69;34.96;36.87;;
47923;Laerm;33688;44.354;9.228;2024-03-08T05:14:12;35.68;34.87;37.64;;
47923;Laerm;33688;44.354;9.228;2024-03-08T05:16:47;35.86;34.93;41.78;;
47923;Laerm;33688;44.354;9.228;2024-03-08T05:19:19;35.67;34.82;36.63;;
47923;Laerm;33688;44.354;9.228;2024-03-08T05:21:46;35.70;34.98;36.80;;
47923;Laerm;33688;44.354;9.228;2024-03-08T05:24:11;35.78;35.00;37.97;;
47923;Laerm;33688;44.354;9.228;2024-03-08T05:26:38;35.77;35.07;37.42;;
47923;Laerm;33688;44.354;9.228;2024-03-08T05:29:04;35.70;34.99;36.60;;
47923;Laerm;33688;44.354;9.228;2024-03-08T05:31:43;35.76;34.96;38.30;;
47923;Laerm;33688;44.354;9.228;2024-03-08T05:34:11;35.68;34.91;36.59;;
47923;Laerm;33688;44.354;9.228;2024-03-08T05:36:40;37.99;34.96;47.05;;
47923;Laerm;33688;44.354;9.228;2024-03-08T05:39:08;35.70;34.98;36.64;;
47923;Laerm;33688;44.354;9.228;2024-03-08T05:41:38;35.70;34.81;36.75;;
47923;Laerm;33688;44.354;9.228;2024-03-08T05:44:08;35.70;34.91;36.63;;
47923;Laerm;33688;44.354;9.228;2024-03-08T05:46:35;35.92;34.94;43.59;;
47923;Laerm;33688;44.354;9.228;2024-03-08T05:49:04;35.72;34.99;38.30;;
47923;Laerm;33688;44.354;9.228;2024-03-08T05:51:38;35.70;34.94;36.77;;
47923;Laerm;33688;44.354;9.228;2024-03-08T05:54:09;35.75;35.02;41.91;;
47923;Laerm;33688;44.354;9.228;2024-03-08T05:56:39;35.70;34.99;36.51;;
47923;Laerm;33688;44.354;9.228;2024-03-08T05:59:10;35.71;34.94;37.12;;
47923;Laerm;33688;44.354;9.228;2024-03-08T06:01:36;35.79;34.93;39.60;;
47923;Laerm;33688;44.354;9.228;2024-03-08T06:04:03;35.79;34.99;37.37;;
47923;Laerm;33688;44.354;9.228;2024-03-08T06:06:31;35.79;34.98;45.87;;
47923;Laerm;33688;44.354;9.228;2024-03-08T06:08:57;35.72;34.99;36.67;;
47923;Laerm;33688;44.354;9.228;2024-03-08T06:11:25;35.78;34.98;46.46;;
47923;Laerm;33688;44.354;9.228;2024-03-08T06:13:53;36.30;35.06;42.57;;
47923;Laerm;33688;44.354;9.228;2024-03-08T06:16:26;36.28;35.00;41.36;;
47923;Laerm;33688;44.354;9.228;2024-03-08T06:18:57;36.88;34.99;47.52;;
47923;Laerm;33688;44.354;9.228;2024-03-08T06:21:24;36.71;34.95;49.06;;
47923;Laerm;33688;44.354;9.228;2024-03-08T06:23:54;35.73;35.12;36.76;;
47923;Laerm;33688;44.354;9.228;2024-03-08T06:26:21;35.94;35.13;44.49;;
47923;Laerm;33688;44.354;9.228;2024-03-08T06:28:48;35.81;34.89;38.96;;
47923;Laerm;33688;44.354;9.228;2024-03-08T06:31:14;35.81;35.04;38.42;;
47923;Laerm;33688;44.354;9.228;2024-03-08T06:33:40;35.71;34.89;36.63;;
47923;Laerm;33688;44.354;9.228;2024-03-08T06:36:06;35.72;34.97;36.57;;
47923;Laerm;33688;44.354;9.228;2024-03-08T06:38:32;35.79;35.07;40.64;;
47923;Laerm;33688;44.354;9.228;2024-03-08T06:40:58;35.80;34.92;37.50;;
47923;Laerm;33688;44.354;9.228;2024-03-08T06:43:24;35.72;34.89;37.96;;
47923;Laerm;33688;44.354;9.228;2024-03-08T06:45:58;43.65;35.08;71.10;;
47923;Laerm;33688;44.354;9.228;2024-03-08T06:48:23;38.77;35.15;63.07;;
47923;Laerm;33688;44.354;9.228;2024-03-08T06:50:49;48.79;35.13;74.96;;
47923;Laerm;33688;44.354;9.228;2024-03-08T06:53:15;35.85;35.07;39.33;;
47923;Laerm;33688;44.354;9.228;2024-03-08T06:55:45;35.85;35.18;37.73;;
47923;Laerm;33688;44.354;9.228;2024-03-08T06:58:11;35.86;35.13;39.32;;
47923;Laerm;33688;44.354;9.228;2024-03-08T07:00:37;35.89;35.09;38.73;;
47923;Laerm;33688;44.354;9.228;2024-03-08T07:03:03;36.15;35.08;52.78;;
47923;Laerm;33688;44.354;9.228;2024-03-08T07:05:32;35.85;34.83;37.86;;
47923;Laerm;33688;44.354;9.228;2024-03-08T07:07:58;51.32;34.98;80.09;;
47923;Laerm;33688;44.354;9.228;2024-03-08T07:10:24;48.29;39.99;73.28;;
47923;Laerm;33688;44.354;9.228;2024-03-08T07:12:53;48.61;40.32;70.46;;
47923;Laerm;33688;44.354;9.228;2024-03-08T07:15:19;43.14;39.94;64.16;;
47923;Laerm;33688;44.354;9.228;2024-03-08T07:17:49;47.00;39.56;70.77;;
47923;Laerm;33688;44.354;9.228;2024-03-08T07:20:18;41.50;39.96;53.21;;
47923;Laerm;33688;44.354;9.228;2024-03-08T07:22:45;40.53;39.52;50.66;;
47923;Laerm;33688;44.354;9.228;2024-03-08T07:25:16;49.90;39.52;77.97;;
47923;Laerm;33688;44.354;9.228;2024-03-08T07:27:54;41.50;39.47;57.83;;
47923;Laerm;33688;44.354;9.228;2024-03-08T07:30:25;41.96;39.18;64.03;;
47923;Laerm;33688;44.354;9.228;2024-03-08T07:33:09;42.06;39.14;55.96;;
47923;Laerm;33688;44.354;9.228;2024-03-08T07:35:39;46.88;39.31;64.36;;
47923;Laerm;33688;44.354;9.228;2024-03-08T07:38:09;53.07;39.41;72.87;;
47923;Laerm;33688;44.354;9.228;2024-03-08T07:40:40;54.00;39.79;69.09;;
47923;Laerm;33688;44.354;9.228;2024-03-08T07:43:10;52.52;39.30;68.32;;
47923;Laerm;33688;44.354;9.228;2024-03-08T07:45:40;53.80;39.53;67.76;;
47923;Laerm;33688;44.354;9.228;2024-03-08T07:48:06;55.20;39.90;70.15;;
47923;Laerm;33688;44.354;9.228;2024-03-08T07:50:39;54.69;39.45;68.51;;
47923;Laerm;33688;44.354;9.228;2024-03-08T07:53:07;55.95;39.51;70.00;;
47923;Laerm;33688;44.354;9.228;2024-03-08T07:55:34;56.30;39.43;70.61;;
47923;Laerm;33688;44.354;9.228;2024-03-08T07:58:02;55.60;39.67;70.11;;
47923;Laerm;33688;44.354;9.228;2024-03-08T08:00:29;54.24;39.60;71.53;;
47923;Laerm;33688;44.354;9.228;2024-03-08T08:02:58;60.29;39.81;71.93;;
47923;Laerm;33688;44.354;9.228;2024-03-08T08:05:25;57.83;40.02;84.70;;
47923;Laerm;33688;44.354;9.228;2024-03-08T08:07:51;60.65;40.09;76.99;;
47923;Laerm;33688;44.354;9.228;2024-03-08T08:10:18;61.93;39.69;77.79;;
47923;Laerm;33688;44.354;9.228;2024-03-08T08:12:51;60.60;39.72;75.00;;
47923;Laerm;33688;44.354;9.228;2024-03-08T08:15:20;61.36;39.57;75.86;;
47923;Laerm;33688;44.354;9.228;2024-03-08T08:17:46;55.56;39.43;82.19;;
47923;Laerm;33688;44.354;9.228;2024-03-08T08:20:13;41.81;39.55;55.02;;
47923;Laerm;33688;44.354;9.228;2024-03-08T08:22:41;42.17;39.55;61.12;;
47923;Laerm;33688;44.354;9.228;2024-03-08T08:25:09;40.86;39.39;49.36;;
47923;Laerm;33688;44.354;9.228;2024-03-08T08:27:39;41.04;39.47;48.28;;
47923;Laerm;33688;44.354;9.228;2024-03-08T08:30:09;41.13;39.57;54.19;;
47923;Laerm;33688;44.354;9.228;2024-03-08T08:32:38;40.75;39.53;50.51;;
47923;Laerm;33688;44.354;9.228;2024-03-08T08:35:11;43.03;39.47;63.85;;
47923;Laerm;33688;44.354;9.228;2024-03-08T08:37:41;41.20;39.43;51.91;;
47923;Laerm;33688;44.354;9.228;2024-03-08T08:40:08;42.43;39.41;63.19;;
47923;Laerm;33688;44.354;9.228;2024-03-08T08:42:40;45.11;39.60;68.34;;
47923;Laerm;33688;44.354;9.228;2024-03-08T08:45:07;41.47;39.44;59.77;;
47923;Laerm;33688;44.354;9.228;2024-03-08T08:47:36;41.45;39.44;53.52;;
47923;Laerm;33688;44.354;9.228;2024-03-08T08:50:03;45.28;39.60;68.10;;
47923;Laerm;33688;44.354;9.228;2024-03-08T08:52:33;41.77;39.49;58.14;;
47923;Laerm;33688;44.354;9.228;2024-03-08T08:55:00;42.01;39.36;58.88;;
47923;Laerm;33688;44.354;9.228;2024-03-08T08:57:26;48.85;39.29;72.50;;
47923;Laerm;33688;44.354;9.228;2024-03-08T08:59:53;41.17;39.54;53.16;;
47923;Laerm;33688;44.354;9.228;2024-03-08T09:02:19;51.85;39.42;78.72;;
47923;Laerm;33688;44.354;9.228;2024-03-08T09:04:46;51.38;39.91;68.58;;
47923;Laerm;33688;44.354;9.228;2024-03-08T09:07:14;48.74;39.28;70.48;;
47923;Laerm;33688;44.354;9.228;2024-03-08T09:09:43;52.83;39.21;68.25;;
47923;Laerm;33688;44.354;9.228;2024-03-08T09:12:10;56.88;39.58;83.19;;
47923;Laerm;33688;44.354;9.228;2024-03-08T09:14:42;43.38;39.64;66.91;;
47923;Laerm;33688;44.354;9.228;2024-03-08T09:17:08;58.39;39.91;74.50;;
47923;Laerm;33688;44.354;9.228;2024-03-08T09:19:35;57.52;39.61;86.31;;
47923;Laerm;33688;44.354;9.228;2024-03-08T09:22:03;57.08;39.69;83.52;;
47923;Laerm;33688;44.354;9.228;2024-03-08T09:24:30;57.26;39.13;84.48;;
47923;Laerm;33688;44.354;9.228;2024-03-08T09:26:57;55.97;38.64;78.75;;
47923;Laerm;33688;44.354;9.228;2024-03-08T09:29:24;52.24;39.42;71.63;;
47923;Laerm;33688;44.354;9.228;2024-03-08T09:31:50;49.13;39.87;63.95;;
47923;Laerm;33688;44.354;9.228;2024-03-08T09:34:16;49.97;39.79;64.27;;
47923;Laerm;33688;44.354;9.228;2024-03-08T09:36:44;53.22;39.46;77.13;;
47923;Laerm;33688;44.354;9.228;2024-03-08T09:39:13;42.30;39.48;60.53;;
47923;Laerm;33688;44.354;9.228;2024-03-08T09:41:47;50.11;39.49;69.91;;
47923;Laerm;33688;44.354;9.228;2024-03-08T09:44:18;50.19;39.53;71.57;;
47923;Laerm;33688;44.354;9.228;2024-03-08T09:46:48;46.85;39.68;67.72;;
47923;Laerm;33688;44.354;9.228;2024-03-08T09:49:16;47.77;39.76;65.69;;
47923;Laerm;33688;44.354;9.228;2024-03-08T09:51:42;55.77;40.25;79.69;;
47923;Laerm;33688;44.354;9.228;2024-03-08T09:54:08;57.57;39.62;85.56;;
47923;Laerm;33688;44.354;9.228;2024-03-08T09:56:36;48.72;39.36;64.86;;
47923;Laerm;33688;44.354;9.228;2024-03-08T09:59:02;52.63;40.41;67.22;;
47923;Laerm;33688;44.354;9.228;2024-03-08T10:01:49;44.29;39.86;61.48;;
47923;Laerm;33688;44.354;9.228;2024-03-08T10:04:17;43.06;39.69;56.39;;
47923;Laerm;33688;44.354;9.228;2024-03-08T10:06:44;49.56;39.48;64.77;;
47923;Laerm;33688;44.354;9.228;2024-03-08T10:09:14;43.79;39.68;64.96;;
47923;Laerm;33688;44.354;9.228;2024-03-08T10:11:43;48.88;39.59;63.18;;
47923;Laerm;33688;44.354;9.228;2024-03-08T10:14:09;45.70;39.46;64.64;;
47923;Laerm;33688;44.354;9.228;2024-03-08T10:16:38;45.71;39.36;58.69;;
47923;Laerm;33688;44.354;9.228;2024-03-08T10:19:03;46.38;39.39;61.16;;
47923;Laerm;33688;44.354;9.228;2024-03-08T10:21:32;45.93;39.44;61.30;;
47923;Laerm;33688;44.354;9.228;2024-03-08T10:24:02;61.17;39.30;78.87;;
47923;Laerm;33688;44.354;9.228;2024-03-08T10:26:30;54.60;39.57;74.78;;
47923;Laerm;33688;44.354;9.228;2024-03-08T10:28:57;45.73;39.55;60.14;;
47923;Laerm;33688;44.354;9.228;2024-03-08T10:31:24;48.56;39.39;65.70;;
47923;Laerm;33688;44.354;9.228;2024-03-08T10:33:50;49.73;39.25;65.66;;
47923;Laerm;33688;44.354;9.228;2024-03-08T10:36:16;49.77;39.40;64.62;;
47923;Laerm;33688;44.354;9.228;2024-03-08T10:38:44;49.77;39.46;65.03;;
47923;Laerm;33688;44.354;9.228;2024-03-08T10:41:12;53.11;39.64;75.85;;
47923;Laerm;33688;44.354;9.228;2024-03-08T10:44:26;59.10;39.54;89.72;;
47923;Laerm;33688;44.354;9.228;2024-03-08T10:49:32;47.11;39.55;68.42;;
47923;Laerm;33688;44.354;9.228;2024-03-08T10:52:05;44.10;39.30;61.90;;
47923;Laerm;33688;44.354;9.228;2024-03-08T10:54:37;47.02;39.50;63.41;;
47923;Laerm;33688;44.354;9.228;2024-03-08T10:57:06;44.79;39.46;64.73;;
47923;Laerm;33688;44.354;9.228;2024-03-08T10:59:34;42.50;39.68;56.95;;
47923;Laerm;33688;44.354;9.228;2024-03-08T11:02:01;51.53;39.33;70.37;;
47923;Laerm;33688;44.354;9.228;2024-03-08T11:04:27;50.26;39.50;67.97;;
47923;Laerm;33688;44.354;9.228;2024-03-08T11:07:02;44.66;39.29;64.44;;
47923;Laerm;33688;44.354;9.228;2024-03-08T11:09:37;44.94;39.57;66.54;;
47923;Laerm;33688;44.354;9.228;2024-03-08T11:12:27;44.28;39.44;62.85;;
47923;Laerm;33688;44.354;9.228;2024-03-08T11:15:00;47.31;39.25;65.51;;
47923;Laerm;33688;44.354;9.228;2024-03-08T11:17:44;47.80;39.61;66.10;;
47923;Laerm;33688;44.354;9.228;2024-03-08T11:20:11;46.69;39.55;64.29;;
47923;Laerm;33688;44.354;9.228;2024-03-08T11:23:04;43.99;39.38;60.48;;
47923;Laerm;33688;44.354;9.228;2024-03-08T11:25:40;42.01;39.27;57.18;;
47923;Laerm;33688;44.354;9.228;2024-03-08T11:28:20;46.52;39.28;67.66;;
47923;Laerm;33688;44.354;9.228;2024-03-08T11:33:36;51.02;35.35;71.80;;
47923;Laerm;33688;44.354;9.228;2024-03-08T11:36:10;41.23;35.15;61.23;;
47923;Laerm;33688;44.354;9.228;2024-03-08T11:38:43;37.15;35.10;59.18;;
47923;Laerm;33688;44.354;9.228;2024-03-08T11:41:10;36.44;34.82;49.74;;
47923;Laerm;33688;44.354;9.228;2024-03-08T11:43:40;35.82;34.76;39.35;;
47923;Laerm;33688;44.354;9.228;2024-03-08T11:46:17;35.97;35.03;40.66;;
47923;Laerm;33688;44.354;9.228;2024-03-08T11:48:44;36.18;35.13;43.07;;
47923;Laerm;33688;44.354;9.228;2024-03-08T11:51:14;35.99;34.87;44.49;;
47923;Laerm;33688;44.354;9.228;2024-03-08T11:53:59;36.11;35.07;48.11;;
47923;Laerm;33688;44.354;9.228;2024-03-08T11:56:25;36.17;35.00;50.35;;
47923;Laerm;33688;44.354;9.228;2024-03-08T11:58:55;36.41;34.84;53.52;;
47923;Laerm;33688;44.354;9.228;2024-03-08T12:01:23;36.57;35.10;53.32;;
47923;Laerm;33688;44.354;9.228;2024-03-08T12:03:57;36.57;35.15;47.80;;
47923;Laerm;33688;44.354;9.228;2024-03-08T12:06:35;36.07;35.02;44.61;;
47923;Laerm;33688;44.354;9.228;2024-03-08T12:09:03;35.89;34.93;40.76;;
47923;Laerm;33688;44.354;9.228;2024-03-08T12:11:30;35.99;35.01;42.55;;
47923;Laerm;33688;44.354;9.228;2024-03-08T12:14:15;37.36;35.03;58.91;;
47923;Laerm;33688;44.354;9.228;2024-03-08T12:16:41;37.65;35.10;53.40;;
47923;Laerm;33688;44.354;9.228;2024-03-08T12:19:08;37.23;35.17;50.41;;
47923;Laerm;33688;44.354;9.228;2024-03-08T12:21:35;36.77;35.05;53.50;;
47923;Laerm;33688;44.354;9.228;2024-03-08T12:24:09;36.16;34.99;49.78;;
47923;Laerm;33688;44.354;9.228;2024-03-08T12:26:39;38.45;34.99;62.76;;
47923;Laerm;33688;44.354;9.228;2024-03-08T12:29:21;36.03;35.02;44.22;;
47923;Laerm;33688;44.354;9.228;2024-03-08T12:31:58;36.98;35.07;58.32;;
47923;Laerm;33688;44.354;9.228;2024-03-08T12:34:28;35.83;35.07;40.29;;
47923;Laerm;33688;44.354;9.228;2024-03-08T12:36:54;36.24;35.09;52.17;;
47923;Laerm;33688;44.354;9.228;2024-03-08T12:39:22;36.33;35.08;46.42;;
47923;Laerm;33688;44.354;9.228;2024-03-08T12:41:49;37.84;34.83;47.19;;
47923;Laerm;33688;44.354;9.228;2024-03-08T12:44:19;36.29;34.98;50.33;;
47923;Laerm;33688;44.354;9.228;2024-03-08T12:46:47;37.94;34.72;50.44;;
47923;Laerm;33688;44.354;9.228;2024-03-08T12:49:14;38.74;35.33;63.21;;
47923;Laerm;33688;44.354;9.228;2024-03-08T12:51:44;38.88;35.00;58.81;;
47923;Laerm;33688;44.354;9.228;2024-03-08T12:54:10;37.52;35.09;58.77;;
47923;Laerm;33688;44.354;9.228;2024-03-08T12:56:37;37.25;35.00;54.77;;
47923;Laerm;33688;44.354;9.228;2024-03-08T12:59:07;38.43;35.09;50.60;;
47923;Laerm;33688;44.354;9.228;2024-03-08T13:01:34;37.72;34.98;54.74;;
47923;Laerm;33688;44.354;9.228;2024-03-08T13:04:04;37.42;35.14;51.93;;
47923;Laerm;33688;44.354;9.228;2024-03-08T13:06:31;36.98;35.06;50.79;;
47923;Laerm;33688;44.354;9.228;2024-03-08T13:08:59;36.98;35.71;46.95;;
47923;Laerm;33688;44.354;9.228;2024-03-08T13:11:31;38.75;35.62;56.97;;
47923;Laerm;33688;44.354;9.228;2024-03-08T13:13:59;41.08;34.97;54.89;;
47923;Laerm;33688;44.354;9.228;2024-03-08T13:16:25;37.74;35.09;56.98;;
47923;Laerm;33688;44.354;9.228;2024-03-08T13:18:56;38.94;34.95;59.67;;
47923;Laerm;33688;44.354;9.228;2024-03-08T13:21:23;42.32;35.15;62.06;;
47923;Laerm;33688;44.354;9.228;2024-03-08T13:23:49;42.16;35.13;63.09;;
47923;Laerm;33688;44.354;9.228;2024-03-08T13:26:16;46.26;35.18;68.56;;
47923;Laerm;33688;44.354;9.228;2024-03-08T13:28:43;47.98;35.21;64.98;;
47923;Laerm;33688;44.354;9.228;2024-03-08T13:31:10;55.54;35.61;80.39;;
47923;Laerm;33688;44.354;9.228;2024-03-08T13:33:40;44.16;35.26;61.56;;
47923;Laerm;33688;44.354;9.228;2024-03-08T13:36:08;49.88;35.18;69.51;;
47923;Laerm;33688;44.354;9.228;2024-03-08T13:38:48;52.99;35.38;80.17;;
47923;Laerm;33688;44.354;9.228;2024-03-08T13:41:15;53.52;35.20;72.71;;
47923;Laerm;33688;44.354;9.228;2024-03-08T13:43:46;54.61;41.23;77.97;;
47923;Laerm;33688;44.354;9.228;2024-03-08T13:46:12;50.60;41.31;65.97;;
47923;Laerm;33688;44.354;9.228;2024-03-08T13:48:38;44.80;40.26;64.40;;
47923;Laerm;33688;44.354;9.228;2024-03-08T13:51:07;50.38;40.57;64.34;;
47923;Laerm;33688;44.354;9.228;2024-03-08T13:53:35;60.74;40.15;74.78;;
47923;Laerm;33688;44.354;9.228;2024-03-08T13:56:06;56.50;39.63;74.84;;
47923;Laerm;33688;44.354;9.228;2024-03-08T13:58:33;44.46;39.39;64.19;;